Time;durP1;ratioP1;P1;durP2;ratioP2;P2;SDS_P1;SDS_P2;PMS_P1;PMS_P2;Temp;Humidity;BMP_temperature;BMP_pressure;BME280_temperature;BME280_humidity;BME280_pressure;Samples;Min_cycle;Max_cycle;Signal;HPM_P1;HPM_P2
2021/03/24 00:01:24;;;;;;;17.83;9.27;;;2.50;72.10;;;;;;5048590;28;20112;-66
2021/03/24 00:03:50;;;;;;;20.50;10.70;;;2.50;72.30;;;;;;5049051;28;20095;-65
2021/03/24 00:06:16;;;;;;;17.33;10.07;;;2.40;72.30;;;;;;5048644;28;20037;-65
2021/03/24 00:08:42;;;;;;;18.00;9.65;;;2.50;72.30;;;;;;5050553;28;20029;-65
2021/03/24 00:11:08;;;;;;;19.45;10.18;;;2.50;72.20;;;;;;5047384;28;20037;-65
2021/03/24 00:13:33;;;;;;;20.27;9.27;;;2.40;72.20;;;;;;5048501;28;20206;-65
2021/03/24 00:15:59;;;;;;;18.42;9.52;;;2.30;72.30;;;;;;5048459;28;20096;-65
2021/03/24 00:18:25;;;;;;;18.58;10.05;;;2.40;72.40;;;;;;5045442;28;20053;-65
2021/03/24 00:20:51;;;;;;;17.15;9.48;;;2.40;72.20;;;;;;5030356;28;20032;-65
2021/03/24 00:23:16;;;;;;;22.27;10.55;;;2.40;72.50;;;;;;5046462;28;20034;-65
2021/03/24 00:25:42;;;;;;;24.88;10.43;;;2.30;72.40;;;;;;5048386;28;20092;-65
2021/03/24 00:28:08;;;;;;;18.02;9.80;;;2.30;72.50;;;;;;5039358;28;20046;-65
2021/03/24 00:30:35;;;;;;;17.80;10.00;;;2.30;72.20;;;;;;5031821;28;20044;-65
2021/03/24 00:33:01;;;;;;;16.52;9.88;;;2.40;72.60;;;;;;5050308;28;20039;-65
2021/03/24 00:35:27;;;;;;;19.85;10.48;;;2.30;72.20;;;;;;5047732;28;20033;-65
2021/03/24 00:37:52;;;;;;;19.50;10.40;;;2.10;72.50;;;;;;5048356;28;20085;-65
2021/03/24 00:40:21;;;;;;;16.30;9.68;;;2.10;72.80;;;;;;5048283;28;20080;-65
2021/03/24 00:42:46;;;;;;;19.23;10.23;;;2.10;72.90;;;;;;5040127;28;20093;-65
2021/03/24 00:45:12;;;;;;;19.05;9.45;;;2.00;72.90;;;;;;5025922;28;20045;-65
2021/03/24 00:47:38;;;;;;;16.15;9.55;;;2.00;73.10;;;;;;5047057;28;20198;-65
2021/03/24 00:50:04;;;;;;;18.15;9.75;;;2.10;73.00;;;;;;5045645;28;20068;-65
2021/03/24 00:52:30;;;;;;;20.08;9.88;;;2.10;73.10;;;;;;5045113;28;20046;-65
2021/03/24 00:54:56;;;;;;;16.80;9.82;;;1.90;73.20;;;;;;5045185;28;20096;-65
2021/03/24 00:57:21;;;;;;;20.23;10.57;;;1.90;73.30;;;;;;5045239;28;20029;-65
2021/03/24 00:59:47;;;;;;;18.58;10.15;;;1.90;73.20;;;;;;5046850;28;20025;-65
2021/03/24 01:02:12;;;;;;;17.88;9.80;;;1.80;73.40;;;;;;5044994;28;20041;-65
2021/03/24 01:04:38;;;;;;;19.42;10.27;;;1.90;73.50;;;;;;5044975;28;20237;-65
2021/03/24 01:07:05;;;;;;;18.27;10.05;;;1.90;73.40;;;;;;5044799;28;20040;-65
2021/03/24 01:09:31;;;;;;;16.90;9.90;;;1.90;73.50;;;;;;5043867;28;20108;-65
2021/03/24 01:11:56;;;;;;;16.05;9.52;;;1.90;73.20;;;;;;5046365;28;20261;-65
2021/03/24 01:14:22;;;;;;;19.30;9.80;;;1.80;73.10;;;;;;5045140;28;20056;-65
2021/03/24 01:16:47;;;;;;;17.40;10.07;;;2.00;73.10;;;;;;5044650;28;20091;-65
2021/03/24 01:19:13;;;;;;;21.17;10.32;;;1.90;73.20;;;;;;5044634;28;20236;-65
2021/03/24 01:21:38;;;;;;;20.88;10.40;;;1.90;73.30;;;;;;5044483;28;20053;-65
2021/03/24 01:24:04;;;;;;;20.48;9.60;;;1.90;73.60;;;;;;5046321;28;20124;-65
2021/03/24 01:26:30;;;;;;;22.25;10.15;;;1.90;73.20;;;;;;5044686;28;20048;-65
2021/03/24 01:28:58;;;;;;;21.80;10.07;;;1.90;73.20;;;;;;5044450;28;20112;-66
2021/03/24 01:31:30;;;;;;;17.17;9.45;;;1.80;73.20;;;;;;5044569;28;20025;-65
2021/03/24 01:33:56;;;;;;;14.95;8.93;;;1.90;73.50;;;;;;5044563;28;20044;-65
2021/03/24 01:36:22;;;;;;;17.05;9.00;;;1.80;73.10;;;;;;5043183;28;20033;-66
2021/03/24 01:38:48;;;;;;;17.52;9.77;;;1.80;73.30;;;;;;5046056;28;20033;-65
2021/03/24 01:41:13;;;;;;;17.65;9.65;;;1.90;73.10;;;;;;5044663;28;20053;-65
2021/03/24 01:43:39;;;;;;;16.92;9.52;;;1.80;73.20;;;;;;5042844;28;20090;-65
2021/03/24 01:46:20;;;;;;;15.00;8.95;;;1.80;73.10;;;;;;5044058;28;20057;-65
2021/03/24 01:48:53;;;;;;;20.77;9.77;;;1.80;73.30;;;;;;5044194;28;20320;-65
2021/03/24 01:51:20;;;;;;;18.25;9.93;;;1.80;73.00;;;;;;5043401;28;20052;-65
2021/03/24 01:53:46;;;;;;;18.92;10.18;;;1.70;73.10;;;;;;5045413;28;20038;-65
2021/03/24 01:56:11;;;;;;;17.55;10.25;;;1.60;73.20;;;;;;5043278;28;20217;-65
2021/03/24 01:58:37;;;;;;;18.30;9.82;;;1.70;73.30;;;;;;5042750;28;20037;-65
2021/03/24 02:01:06;;;;;;;20.48;9.38;;;1.70;73.00;;;;;;5019025;28;20057;-65
2021/03/24 02:03:32;;;;;;;19.77;9.85;;;1.80;73.00;;;;;;5026675;28;20305;-65
2021/03/24 02:05:57;;;;;;;17.38;9.13;;;1.80;72.70;;;;;;5045795;28;20041;-65
2021/03/24 02:08:31;;;;;;;15.50;9.23;;;1.60;73.00;;;;;;5042728;28;20248;-65
2021/03/24 02:11:14;;;;;;;18.65;10.30;;;1.70;73.30;;;;;;5027169;28;20033;-65
2021/03/24 02:13:49;;;;;;;18.45;9.32;;;1.60;73.10;;;;;;5042481;28;20060;-65
2021/03/24 02:16:31;;;;;;;16.98;8.93;;;1.60;73.20;;;;;;5026559;28;20029;-65
2021/03/24 02:18:58;;;;;;;18.70;8.82;;;1.60;73.40;;;;;;5042534;28;20061;-65
2021/03/24 02:21:28;;;;;;;15.88;9.55;;;1.60;73.10;;;;;;5025983;28;20056;-65
2021/03/24 02:23:58;;;;;;;20.13;10.35;;;1.60;72.90;;;;;;5043848;28;20075;-65
2021/03/24 02:26:37;;;;;;;20.27;10.48;;;1.50;73.00;;;;;;5042600;28;20069;-65
2021/03/24 02:29:04;;;;;;;18.13;10.00;;;1.60;73.40;;;;;;5042660;28;20037;-65
2021/03/24 02:31:29;;;;;;;18.33;9.48;;;1.50;73.40;;;;;;5025692;28;20100;-65
2021/03/24 02:33:55;;;;;;;19.63;9.63;;;1.40;73.60;;;;;;5042068;28;20328;-65
2021/03/24 02:36:21;;;;;;;18.25;10.23;;;1.40;73.30;;;;;;5025812;28;20040;-65
2021/03/24 02:38:47;;;;;;;16.65;10.10;;;1.40;73.00;;;;;;5027484;28;20033;-65
2021/03/24 02:41:13;;;;;;;18.25;9.73;;;1.40;73.20;;;;;;5042191;28;20272;-65
2021/03/24 02:43:39;;;;;;;19.98;10.18;;;1.30;73.30;;;;;;5013211;28;20033;-65
2021/03/24 02:46:05;;;;;;;17.27;9.68;;;1.40;73.80;;;;;;5030612;28;20221;-65
2021/03/24 02:48:33;;;;;;;19.92;9.70;;;1.40;73.30;;;;;;5041669;28;20037;-65
2021/03/24 02:50:59;;;;;;;15.77;9.38;;;1.40;73.50;;;;;;5043334;28;20059;-65
2021/03/24 02:53:24;;;;;;;19.10;10.10;;;1.40;73.50;;;;;;5007639;28;20038;-65
2021/03/24 02:55:50;;;;;;;16.23;9.20;;;1.50;73.10;;;;;;5025198;28;20037;-65
2021/03/24 02:58:15;;;;;;;16.23;9.20;;;1.40;72.80;;;;;;5041529;28;20037;-66
2021/03/24 03:00:41;;;;;;;19.33;10.32;;;1.40;73.10;;;;;;5042568;28;20025;-65
2021/03/24 03:03:12;;;;;;;20.52;10.65;;;1.40;73.00;;;;;;5026527;28;20048;-65
2021/03/24 03:05:37;;;;;;;18.60;10.35;;;1.30;73.30;;;;;;5041304;28;20041;-65
2021/03/24 03:08:21;;;;;;;20.48;10.32;;;1.20;73.50;;;;;;5009870;28;20321;-65
2021/03/24 03:11:12;;;;;;;19.58;10.50;;;1.20;73.80;;;;;;5035293;28;20092;-65
2021/03/24 03:13:58;;;;;;;19.63;9.63;;;1.20;73.70;;;;;;5041804;28;20037;-65
2021/03/24 03:16:31;;;;;;;20.27;10.40;;;1.10;73.40;;;;;;5027903;28;20041;-65
2021/03/24 03:19:16;;;;;;;19.55;10.10;;;1.10;73.50;;;;;;5041476;28;20182;-65
2021/03/24 03:21:54;;;;;;;23.98;10.10;;;1.10;73.60;;;;;;5041350;28;20036;-65
2021/03/24 03:24:21;;;;;;;22.67;10.60;;;1.10;73.90;;;;;;5041099;28;20063;-65
2021/03/24 03:26:47;;;;;;;18.17;10.63;;;1.10;73.50;;;;;;5042827;28;20021;-65
2021/03/24 03:29:14;;;;;;;20.67;10.75;;;1.00;73.60;;;;;;5041611;28;20041;-65
2021/03/24 03:31:40;;;;;;;26.42;11.18;;;1.10;73.90;;;;;;5041395;28;20033;-65
2021/03/24 03:34:09;;;;;;;20.05;10.38;;;1.00;74.00;;;;;;5017469;28;20049;-65
2021/03/24 03:36:35;;;;;;;18.85;10.45;;;1.10;74.20;;;;;;5024843;28;20033;-65
2021/03/24 03:39:01;;;;;;;18.88;9.93;;;1.10;74.40;;;;;;5042868;28;20041;-65
2021/03/24 03:41:26;;;;;;;18.98;10.15;;;1.00;74.40;;;;;;5025322;28;20198;-65
2021/03/24 03:43:53;;;;;;;19.02;10.07;;;1.20;74.60;;;;;;5041006;28;20064;-65
2021/03/24 03:46:26;;;;;;;21.20;10.05;;;1.10;74.50;;;;;;5015554;28;20329;-65
2021/03/24 03:48:52;;;;;;;22.42;10.07;;;1.00;74.80;;;;;;5025707;28;20390;-65
2021/03/24 03:51:31;;;;;;;18.08;9.93;;;1.20;74.90;;;;;;5041483;28;20033;-65
2021/03/24 03:54:07;;;;;;;18.17;9.93;;;1.20;74.50;;;;;;5027089;28;20040;-65
2021/03/24 03:56:34;;;;;;;17.35;9.50;;;1.20;74.70;;;;;;5025588;28;20324;-65
2021/03/24 03:59:16;;;;;;;17.42;9.50;;;1.20;74.90;;;;;;5041190;28;20063;-65
2021/03/24 04:01:48;;;;;;;19.42;9.57;;;1.10;75.00;;;;;;5040975;28;20285;-65
2021/03/24 04:04:30;;;;;;;17.63;9.13;;;1.10;75.10;;;;;;5016721;28;20363;-65
2021/03/24 04:06:59;;;;;;;17.95;9.65;;;1.20;75.20;;;;;;5026588;28;20376;-65
2021/03/24 04:09:25;;;;;;;17.90;9.88;;;1.10;75.30;;;;;;5024630;28;20097;-65
2021/03/24 04:11:51;;;;;;;17.75;9.43;;;1.20;75.40;;;;;;5042789;28;20029;-65
2021/03/24 04:14:19;;;;;;;25.35;10.07;;;1.30;75.40;;;;;;5041493;28;20044;-65
2021/03/24 04:16:45;;;;;;;20.73;10.13;;;1.20;75.40;;;;;;5024624;28;20104;-65
2021/03/24 04:19:11;;;;;;;20.90;9.43;;;1.20;75.50;;;;;;5043275;28;20064;-65
2021/03/24 04:21:38;;;;;;;18.85;9.90;;;1.20;75.60;;;;;;5044502;28;20041;-65
2021/03/24 04:24:14;;;;;;;19.50;9.70;;;1.30;75.60;;;;;;5046109;28;20088;-65
2021/03/24 04:26:45;;;;;;;17.88;9.07;;;1.30;75.40;;;;;;5030162;28;20072;-65
2021/03/24 04:29:22;;;;;;;18.65;8.93;;;1.40;75.40;;;;;;5012133;28;20034;-65
2021/03/24 04:31:52;;;;;;;18.92;9.10;;;1.40;75.20;;;;;;5038070;28;20053;-65
2021/03/24 04:34:18;;;;;;;20.67;10.33;;;1.50;74.70;;;;;;5036455;28;20105;-65
2021/03/24 04:36:48;;;;;;;18.30;9.43;;;1.50;74.40;;;;;;5029498;28;20038;-65
2021/03/24 04:39:21;;;;;;;21.25;9.88;;;1.40;74.60;;;;;;5045654;28;20325;-65
2021/03/24 04:41:46;;;;;;;17.40;9.45;;;1.30;75.00;;;;;;5030221;28;20063;-65
2021/03/24 04:44:23;;;;;;;20.00;9.93;;;1.50;75.00;;;;;;5043937;28;20332;-65
2021/03/24 04:46:50;;;;;;;18.83;9.50;;;1.50;74.60;;;;;;5044649;28;20040;-65
2021/03/24 04:49:17;;;;;;;21.15;10.30;;;1.40;74.80;;;;;;5027606;28;20041;-65
2021/03/24 04:51:42;;;;;;;22.48;10.45;;;1.40;74.80;;;;;;5043932;28;20029;-65
2021/03/24 04:54:15;;;;;;;19.02;9.43;;;1.30;74.70;;;;;;5046929;28;20059;-65
2021/03/24 04:56:43;;;;;;;18.25;9.55;;;1.30;74.60;;;;;;5028650;28;20382;-65
2021/03/24 04:59:12;;;;;;;20.15;9.52;;;1.40;74.80;;;;;;5011793;28;20041;-65
2021/03/24 05:01:43;;;;;;;21.85;10.13;;;1.30;73.90;;;;;;5027601;28;20044;-66
2021/03/24 05:04:18;;;;;;;18.40;8.88;;;1.20;74.20;;;;;;5043933;28;20092;-65
2021/03/24 05:06:51;;;;;;;21.77;9.98;;;1.30;74.20;;;;;;5044855;28;20336;-65
2021/03/24 05:09:17;;;;;;;18.83;9.00;;;1.20;74.00;;;;;;5027385;28;20033;-65
2021/03/24 05:11:47;;;;;;;18.90;8.98;;;1.10;74.10;;;;;;5045718;28;20029;-65
2021/03/24 05:14:31;;;;;;;20.98;10.07;;;1.30;74.30;;;;;;5043988;28;20192;-65
2021/03/24 05:17:02;;;;;;;17.40;8.38;;;1.20;73.90;;;;;;5013591;28;20037;-65
2021/03/24 05:19:28;;;;;;;20.35;9.38;;;1.20;74.10;;;;;;5035621;28;20045;-65
2021/03/24 05:21:59;;;;;;;16.92;9.02;;;1.20;74.10;;;;;;5027076;28;20144;-65
2021/03/24 05:24:26;;;;;;;17.27;8.82;;;1.10;74.10;;;;;;5027449;28;20065;-65
2021/03/24 05:26:57;;;;;;;16.00;8.10;;;1.10;74.20;;;;;;5028558;28;20033;-65
2021/03/24 05:29:24;;;;;;;18.30;8.57;;;1.20;74.10;;;;;;5043350;28;20056;-64
2021/03/24 05:31:52;;;;;;;18.08;8.68;;;1.30;73.80;;;;;;5043225;28;20121;-64
2021/03/24 05:34:26;;;;;;;18.85;9.05;;;1.20;73.50;;;;;;5017723;28;20042;-64
2021/03/24 05:36:52;;;;;;;17.50;8.77;;;1.10;73.80;;;;;;5029077;28;20038;-64
2021/03/24 05:39:32;;;;;;;20.98;9.02;;;1.20;74.00;;;;;;5026808;28;20083;-64
2021/03/24 05:42:22;;;;;;;16.35;9.90;;;1.40;73.30;;;;;;5044916;28;20040;-64
2021/03/24 05:44:47;;;;;;;20.15;8.75;;;1.20;73.80;;;;;;5044683;28;20075;-64
2021/03/24 05:47:38;;;;;;;18.67;8.50;;;1.10;74.50;;;;;;5044153;28;20049;-64
2021/03/24 05:50:41;;;;;;;20.08;9.30;;;1.40;74.30;;;;;;5043856;28;20038;-64
2021/03/24 05:53:37;;;;;;;16.88;9.07;;;1.30;73.80;;;;;;5044107;28;20220;-64
2021/03/24 05:56:20;;;;;;;18.63;8.02;;;1.40;74.20;;;;;;5043662;28;20037;-63
2021/03/24 05:59:13;;;;;;;17.50;8.68;;;1.40;74.60;;;;;;5042438;28;20041;-64
2021/03/24 06:01:44;;;;;;;14.43;8.02;;;1.60;73.80;;;;;;5043836;28;20033;-64
2021/03/24 06:04:16;;;;;;;15.15;8.05;;;1.70;73.80;;;;;;5043982;28;20068;-65
2021/03/24 06:07:03;;;;;;;17.63;9.18;;;1.70;74.20;;;;;;5043582;28;20029;-64
2021/03/24 06:09:50;;;;;;;19.23;8.55;;;1.80;73.40;;;;;;5043791;28;20036;-63
2021/03/24 06:12:34;;;;;;;17.80;9.32;;;1.90;74.30;;;;;;5043672;28;20052;-64
2021/03/24 06:15:03;;;;;;;19.63;9.75;;;1.90;73.90;;;;;;5045606;28;20026;-64
2021/03/24 06:18:00;;;;;;;20.98;9.57;;;2.00;74.40;;;;;;5024066;28;20333;-64
2021/03/24 06:20:45;;;;;;;17.35;9.20;;;2.10;74.50;;;;;;5026572;28;20064;-64
2021/03/24 06:23:38;;;;;;;18.75;9.50;;;2.20;74.10;;;;;;5042261;28;20045;-63
2021/03/24 06:26:30;;;;;;;18.50;9.07;;;2.50;73.90;;;;;;5043624;28;20037;-64
2021/03/24 06:29:25;;;;;;;21.50;9.15;;;2.60;73.10;;;;;;5042090;28;20076;-64
2021/03/24 06:32:09;;;;;;;17.98;8.38;;;2.70;72.30;;;;;;5043120;28;20248;-64
2021/03/24 06:34:51;;;;;;;16.80;8.82;;;2.90;71.40;;;;;;5043134;28;20071;-64
2021/03/24 06:37:51;;;;;;;18.25;9.13;;;3.00;70.90;;;;;;5041973;28;20120;-63
2021/03/24 06:40:42;;;;;;;17.75;9.15;;;3.20;70.90;;;;;;5042413;28;20333;-64
2021/03/24 06:43:29;;;;;;;16.23;8.00;;;3.90;70.10;;;;;;5043001;28;20037;-64
2021/03/24 06:46:31;;;;;;;16.15;9.02;;;4.00;68.10;;;;;;5042360;28;20283;-63
2021/03/24 06:49:21;;;;;;;24.17;10.05;;;4.70;67.00;;;;;;5042364;28;20041;-64
2021/03/24 06:52:18;;;;;;;19.90;10.10;;;6.50;63.20;;;;;;5042634;28;20048;-64
2021/03/24 06:55:08;;;;;;;23.83;9.70;;;8.30;55.70;;;;;;5037442;28;20149;-64
2021/03/24 06:57:59;;;;;;;18.88;10.15;;;9.60;50.70;;;;;;5026029;28;20221;-63
2021/03/24 07:01:04;;;;;;;16.05;9.75;;;9.40;49.10;;;;;;5042585;28;20029;-64
2021/03/24 07:04:07;;;;;;;13.00;9.40;;;10.70;46.60;;;;;;5041342;28;20057;-64
2021/03/24 07:07:07;;;;;;;15.95;8.80;;;11.70;44.70;;;;;;5042796;28;20213;-64
2021/03/24 07:09:39;;;;;;;13.32;8.98;;;13.20;40.60;;;;;;5042154;28;20029;-64
2021/03/24 07:12:38;;;;;;;19.92;9.15;;;14.50;38.30;;;;;;5043361;28;20252;-64
2021/03/24 07:15:16;;;;;;;17.63;9.25;;;17.50;32.40;;;;;;5043277;28;20109;-64
2021/03/24 07:17:56;;;;;;;17.25;8.38;;;19.10;30.20;;;;;;5042203;28;20056;-64
2021/03/24 07:20:57;;;;;;;18.95;9.05;;;19.10;29.70;;;;;;5025849;28;20041;-64
2021/03/24 07:23:34;;;;;;;17.73;7.87;;;20.30;27.30;;;;;;5041432;28;20041;-64
2021/03/24 07:26:06;;;;;;;12.07;7.60;;;21.80;25.50;;;;;;5026904;28;20109;-65
2021/03/24 07:29:10;;;;;;;13.25;7.25;;;22.80;24.30;;;;;;5016486;28;20087;-64
2021/03/24 07:31:57;;;;;;;16.15;7.05;;;23.60;22.90;;;;;;4999421;28;20145;-64
2021/03/24 07:34:32;;;;;;;11.82;7.28;;;24.20;22.50;;;;;;5031125;28;20340;-64
2021/03/24 07:37:25;;;;;;;15.02;7.03;;;24.10;22.50;;;;;;5025333;28;20061;-64
2021/03/24 07:40:12;;;;;;;16.30;6.72;;;24.40;22.10;;;;;;5030727;28;20075;-65
2021/03/24 07:43:10;;;;;;;35.85;7.43;;;25.20;20.80;;;;;;5041906;28;20091;-65
2021/03/24 07:45:41;;;;;;;10.00;6.55;;;25.10;20.40;;;;;;5033990;28;20039;-64
2021/03/24 07:48:37;;;;;;;11.80;6.32;;;25.20;20.60;;;;;;5044118;28;20033;-64
2021/03/24 07:51:29;;;;;;;9.88;6.60;;;25.20;20.30;;;;;;5041749;28;20258;-65
2021/03/24 07:54:16;;;;;;;12.00;6.63;;;24.20;21.80;;;;;;5045542;28;20101;-64
2021/03/24 07:56:45;;;;;;;11.68;6.15;;;25.00;20.80;;;;;;5046044;28;20120;-64
2021/03/24 07:59:17;;;;;;;18.38;7.25;;;25.80;20.50;;;;;;5045196;28;20374;-62
2021/03/24 08:01:54;;;;;;;11.90;6.43;;;25.00;21.50;;;;;;5046143;28;20110;-62
2021/03/24 08:04:47;;;;;;;11.98;6.50;;;25.80;20.60;;;;;;5045996;28;20250;-62
2021/03/24 08:07:15;;;;;;;73.72;8.05;;;26.00;19.50;;;;;;5030647;28;20033;-62
2021/03/24 08:10:02;;;;;;;12.90;5.82;;;26.10;20.20;;;;;;5044715;28;20029;-62
2021/03/24 08:12:53;;;;;;;20.08;6.28;;;26.80;19.60;;;;;;5028868;28;20056;-61
2021/03/24 08:15:37;;;;;;;;;;;28.00;18.40;;;;;;5046187;28;20029;-62
2021/03/24 08:18:08;;;;;;;12.02;5.53;;;28.30;18.10;;;;;;5047532;28;20088;-62
2021/03/24 08:20:59;;;;;;;10.57;5.55;;;26.20;19.20;;;;;;5026867;28;20042;-61
2021/03/24 08:23:40;;;;;;;10.93;5.80;;;27.00;19.20;;;;;;5044456;28;20044;-62
2021/03/24 08:26:23;;;;;;;11.10;4.90;;;26.70;19.10;;;;;;5044230;28;20108;-62
2021/03/24 08:29:01;;;;;;;9.07;5.22;;;23.80;21.40;;;;;;5044552;28;20323;-62
2021/03/24 08:31:43;;;;;;;9.23;5.50;;;20.70;25.00;;;;;;5045759;28;20061;-62
2021/03/24 08:34:36;;;;;;;12.80;5.50;;;19.20;26.50;;;;;;5044527;28;20041;-62
2021/03/24 08:37:01;;;;;;;12.07;4.95;;;18.70;28.80;;;;;;5044584;28;20347;-61
2021/03/24 08:40:02;;;;;;;9.35;4.93;;;18.40;29.30;;;;;;5045632;28;20041;-61
2021/03/24 08:43:01;;;;;;;13.80;5.30;;;18.10;30.60;;;;;;5022372;28;20029;-61
2021/03/24 08:45:38;;;;;;;13.77;5.50;;;18.00;29.50;;;;;;5044370;28;20029;-61
2021/03/24 08:48:11;;;;;;;11.07;5.03;;;16.80;32.00;;;;;;5046047;28;20089;-61
2021/03/24 08:50:40;;;;;;;11.13;5.57;;;16.50;32.90;;;;;;5028909;28;20032;-61
2021/03/24 08:53:07;;;;;;;10.98;5.63;;;16.30;33.60;;;;;;5028304;28;20080;-61
2021/03/24 08:56:06;;;;;;;12.38;5.15;;;16.30;32.10;;;;;;5044093;28;20105;-61
2021/03/24 08:58:32;;;;;;;13.57;5.50;;;16.10;34.40;;;;;;5045314;28;20256;-61
2021/03/24 09:01:20;;;;;;;10.88;5.30;;;16.30;33.70;;;;;;5027569;28;20100;-60
2021/03/24 09:04:09;;;;;;;12.85;5.10;;;15.90;34.00;;;;;;5043325;28;20048;-63
2021/03/24 09:07:04;;;;;;;11.60;5.65;;;15.90;35.40;;;;;;5044309;28;20033;-62
2021/03/24 09:10:06;;;;;;;10.65;5.50;;;14.60;35.00;;;;;;5043883;28;20029;-63
2021/03/24 09:13:04;;;;;;;16.08;5.57;;;15.00;35.50;;;;;;5043848;28;20042;-63
2021/03/24 09:15:34;;;;;;;11.77;5.28;;;14.60;35.80;;;;;;5012540;28;20096;-62
2021/03/24 09:18:20;;;;;;;13.85;5.80;;;14.50;35.50;;;;;;5045464;28;20018;-63
2021/03/24 09:20:48;;;;;;;10.35;5.55;;;14.20;36.90;;;;;;5045541;28;20280;-62
2021/03/24 09:23:20;;;;;;;10.85;5.85;;;14.00;36.90;;;;;;5044525;28;20033;-63
2021/03/24 09:25:55;;;;;;;;;;;13.80;36.30;;;;;;5045079;28;20067;-62
2021/03/24 09:28:40;;;;;;;11.32;5.55;;;14.10;38.50;;;;;;5043454;28;19905;-62
2021/03/24 09:31:44;;;;;;;17.17;6.35;;;14.10;38.50;;;;;;5043581;28;20045;-63
2021/03/24 09:34:35;;;;;;;13.50;5.70;;;13.90;37.00;;;;;;5044442;28;20091;-62
2021/03/24 09:37:05;;;;;;;12.70;6.72;;;14.20;38.10;;;;;;5043516;28;20352;-63
2021/03/24 09:39:33;;;;;;;11.10;6.10;;;14.40;37.90;;;;;;5043385;28;20045;-63
2021/03/24 09:42:17;;;;;;;13.38;6.15;;;14.60;37.70;;;;;;5044994;28;20321;-63
2021/03/24 09:44:53;;;;;;;11.73;6.88;;;14.90;37.60;;;;;;5044558;28;20060;-64
2021/03/24 09:47:27;;;;;;;11.18;6.57;;;14.80;36.70;;;;;;5042810;28;20045;-64
2021/03/24 09:49:58;;;;;;;11.80;6.38;;;14.90;37.00;;;;;;5043109;28;20250;-64
2021/03/24 09:52:45;;;;;;;10.80;6.38;;;14.80;36.40;;;;;;5043299;28;20347;-63
2021/03/24 09:55:27;;;;;;;24.55;6.85;;;14.80;36.80;;;;;;5044297;28;20076;-63
2021/03/24 09:58:24;;;;;;;28.10;7.30;;;14.60;38.00;;;;;;5043850;28;20033;-63
2021/03/24 10:01:01;;;;;;;13.65;6.45;;;14.80;38.80;;;;;;5044111;28;20045;-64
2021/03/24 10:03:45;;;;;;;17.08;6.85;;;14.80;36.90;;;;;;5042453;28;20049;-64
2021/03/24 10:06:32;;;;;;;12.50;6.50;;;14.80;36.50;;;;;;5043493;28;20033;-65
2021/03/24 10:09:24;;;;;;;18.75;7.18;;;14.60;37.70;;;;;;5044260;28;20269;-64
2021/03/24 10:12:14;;;;;;;13.15;6.50;;;14.80;37.40;;;;;;5042926;28;20049;-64
2021/03/24 10:15:04;;;;;;;12.23;6.38;;;14.80;38.80;;;;;;5026766;28;20064;-64
2021/03/24 10:17:36;;;;;;;14.10;6.75;;;14.90;38.40;;;;;;5043877;28;20072;-63
2021/03/24 10:20:29;;;;;;;13.00;6.43;;;15.00;37.90;;;;;;5043356;28;20040;-63
2021/03/24 10:23:01;;;;;;;16.45;6.93;;;15.10;38.70;;;;;;5042017;28;20037;-63
2021/03/24 10:25:39;;;;;;;15.40;6.75;;;15.10;37.50;;;;;;5042067;28;20237;-64
2021/03/24 10:28:22;;;;;;;15.30;6.88;;;15.30;38.80;;;;;;5043585;28;20025;-64
2021/03/24 10:31:15;;;;;;;14.82;6.90;;;15.30;37.30;;;;;;5028029;28;20325;-64
2021/03/24 10:33:47;;;;;;;14.95;7.80;;;15.40;38.00;;;;;;5041835;28;20025;-63
2021/03/24 10:36:34;;;;;;;14.02;7.15;;;15.40;39.00;;;;;;5041992;28;20055;-64
2021/03/24 10:39:14;;;;;;;15.23;6.80;;;15.50;36.10;;;;;;5043933;28;20197;-63
2021/03/24 10:41:54;;;;;;;22.83;7.15;;;15.50;38.40;;;;;;5042669;28;20033;-64
2021/03/24 10:44:36;;;;;;;32.00;8.00;;;15.60;36.90;;;;;;5042844;28;20029;-63
2021/03/24 10:47:12;;;;;;;10.63;5.93;;;15.70;37.50;;;;;;5042075;28;20033;-64
2021/03/24 10:49:54;;;;;;;11.45;6.18;;;15.60;36.50;;;;;;5025843;28;20068;-63
2021/03/24 10:52:31;;;;;;;14.32;7.05;;;15.70;37.50;;;;;;5032685;28;20041;-62
2021/03/24 10:55:02;;;;;;;12.00;6.55;;;15.80;36.80;;;;;;5013072;28;20364;-64
2021/03/24 10:57:37;;;;;;;16.05;6.95;;;15.90;37.40;;;;;;5041827;28;20021;-63
2021/03/24 11:00:21;;;;;;;12.27;6.68;;;16.20;35.90;;;;;;5043047;28;20252;-67
2021/03/24 11:03:08;;;;;;;12.10;6.45;;;16.30;35.50;;;;;;5042887;28;20341;-67
2021/03/24 11:05:40;;;;;;;15.45;6.90;;;16.50;36.80;;;;;;5042999;28;20037;-66
2021/03/24 11:08:13;;;;;;;10.77;6.57;;;16.70;36.70;;;;;;5041971;28;20366;-65
2021/03/24 11:10:51;;;;;;;11.88;6.47;;;17.00;35.90;;;;;;5041367;28;20053;-65
2021/03/24 11:13:19;;;;;;;13.45;6.53;;;17.20;35.20;;;;;;5041434;28;20176;-66
2021/03/24 11:16:07;;;;;;;14.27;6.55;;;17.00;31.90;;;;;;5042353;28;20049;-66
2021/03/24 11:18:39;;;;;;;13.27;6.80;;;16.90;33.60;;;;;;5040834;28;20033;-66
2021/03/24 11:21:29;;;;;;;12.30;6.03;;;17.30;34.90;;;;;;5043771;28;20025;-65
2021/03/24 11:24:10;;;;;;;11.00;5.90;;;17.60;33.20;;;;;;4998475;28;20315;-65
2021/03/24 11:27:03;;;;;;;12.82;6.00;;;17.80;33.30;;;;;;5026716;28;20236;-65
2021/03/24 11:29:28;;;;;;;12.57;6.10;;;18.00;33.00;;;;;;5041777;28;20033;-65
2021/03/24 11:31:59;;;;;;;13.18;5.47;;;17.90;30.20;;;;;;5010702;28;20038;-66
2021/03/24 11:34:52;;;;;;;8.77;5.88;;;18.00;31.60;;;;;;5032666;28;20063;-66
2021/03/24 11:37:41;;;;;;;11.77;5.32;;;18.30;33.80;;;;;;5041130;28;20111;-65
2021/03/24 11:40:16;;;;;;;13.55;6.13;;;18.60;33.30;;;;;;5042138;28;20075;-66
2021/03/24 11:42:41;;;;;;;12.38;5.78;;;18.70;33.00;;;;;;5025687;28;20038;-65
2021/03/24 11:45:09;;;;;;;18.55;6.43;;;18.70;32.70;;;;;;5026230;28;20041;-65
2021/03/24 11:48:03;;;;;;;13.70;5.85;;;18.80;32.40;;;;;;5041960;28;20040;-66
2021/03/24 11:50:59;;;;;;;13.65;6.28;;;18.80;31.70;;;;;;5041718;28;20041;-65
2021/03/24 11:53:41;;;;;;;14.80;6.10;;;18.80;31.40;;;;;;5027390;28;20049;-66
2021/03/24 11:56:09;;;;;;;10.32;6.30;;;18.80;29.60;;;;;;5041029;28;20049;-66
2021/03/24 11:59:02;;;;;;;11.48;6.20;;;18.90;30.60;;;;;;5042108;28;20040;-66
2021/03/24 12:01:34;;;;;;;12.30;6.20;;;18.50;29.50;;;;;;5041301;28;20101;-66
2021/03/24 12:04:19;;;;;;;15.02;7.10;;;18.50;30.90;;;;;;5041922;28;20041;-66
2021/03/24 12:06:50;;;;;;;16.80;6.78;;;18.80;30.10;;;;;;5042121;28;20033;-63
2021/03/24 12:09:25;;;;;;;11.70;6.00;;;19.00;31.40;;;;;;5042095;28;20024;-66
2021/03/24 12:12:01;;;;;;;12.00;5.22;;;19.20;31.30;;;;;;5043803;28;20030;-65
2021/03/24 12:14:27;;;;;;;11.55;5.82;;;19.30;28.10;;;;;;5026301;28;20337;-66
2021/03/24 12:16:55;;;;;;;16.05;6.38;;;19.10;29.80;;;;;;5040940;28;20049;-66
2021/03/24 12:19:39;;;;;;;16.77;6.50;;;19.30;29.70;;;;;;5041660;28;20044;-66
2021/03/24 12:22:26;;;;;;;13.63;5.70;;;19.30;29.20;;;;;;5040668;28;20065;-65
2021/03/24 12:25:20;;;;;;;11.30;5.93;;;19.50;31.10;;;;;;5042001;28;20190;-66
2021/03/24 12:27:47;;;;;;;14.63;6.25;;;19.70;31.00;;;;;;5041804;28;20029;-66
2021/03/24 12:30:32;;;;;;;12.75;5.82;;;19.70;29.50;;;;;;5040504;28;20034;-65
2021/03/24 12:33:11;;;;;;;13.73;6.53;;;19.50;30.90;;;;;;5026490;28;20313;-65
2021/03/24 12:35:37;;;;;;;9.40;5.25;;;19.50;29.30;;;;;;5042536;28;20033;-66
2021/03/24 12:38:06;;;;;;;8.27;4.75;;;19.30;28.30;;;;;;5040547;28;20091;-66
2021/03/24 12:40:31;;;;;;;7.82;4.63;;;19.30;29.20;;;;;;5043590;28;20045;-66
2021/03/24 12:43:26;;;;;;;12.40;4.38;;;19.00;26.70;;;;;;5037925;28;20030;-66
2021/03/24 12:45:51;;;;;;;11.95;4.78;;;18.80;27.30;;;;;;5024414;28;20042;-66
2021/03/24 12:48:20;;;;;;;11.57;5.50;;;19.00;30.00;;;;;;5024984;28;20317;-66
2021/03/24 12:50:51;;;;;;;8.48;4.28;;;19.30;31.80;;;;;;5046921;28;20316;-66
2021/03/24 12:53:22;;;;;;;8.63;4.95;;;19.50;29.40;;;;;;5044360;28;20251;-66
2021/03/24 12:55:52;;;;;;;9.95;4.90;;;19.50;27.70;;;;;;5028174;28;20038;-66
2021/03/24 12:58:34;;;;;;;6.55;3.40;;;19.20;28.20;;;;;;5044152;28;20088;-66
2021/03/24 13:01:40;;;;;;;8.40;3.35;;;19.50;27.10;;;;;;5027921;28;20050;-66
2021/03/24 13:04:35;;;;;;;7.03;3.10;;;19.60;24.60;;;;;;5044549;28;20083;-64
2021/03/24 13:07:26;;;;;;;8.95;4.03;;;19.60;26.40;;;;;;5037016;28;20088;-68
2021/03/24 13:10:04;;;;;;;;;;;19.60;28.20;;;;;;5030117;28;20044;-68
2021/03/24 13:12:44;;;;;;;8.00;3.33;;;19.40;27.10;;;;;;5043418;28;19908;-69
2021/03/24 13:15:21;;;;;;;6.32;2.90;;;19.70;28.10;;;;;;5029332;28;20037;-68
2021/03/24 13:18:17;;;;;;;10.05;4.05;;;19.80;27.50;;;;;;5045529;28;20324;-65
2021/03/24 13:20:52;;;;;;;5.32;3.45;;;19.50;25.90;;;;;;5043828;28;20217;-65
2021/03/24 13:23:48;;;;;;;8.60;3.55;;;19.70;28.30;;;;;;5026276;28;20040;-67
2021/03/24 13:26:35;;;;;;;6.63;3.78;;;19.60;26.10;;;;;;5040289;28;20061;-64
2021/03/24 13:29:11;;;;;;;15.98;4.07;;;19.00;25.40;;;;;;5043809;28;20040;-65
2021/03/24 13:32:01;;;;;;;7.97;3.63;;;19.20;28.70;;;;;;5044625;28;20230;-65